Terminal Aerodrome Forecast
Issued by NWS

Home | Current Version | Previous Version | Text Only | Print | Product List | Glossary On
Versions: 1 2 3 4 5 6 7 8 9 10 11 12 13 14 15 16 17 18 19
000
FTUS43 KICT 260520
TAFSLN
TAF
KSLN 260520Z 2606/2706 04007KT P6SM FEW030 BKN250
     FM260800 05004KT P6SM VCTS SCT030 BKN060CB
     FM261400 VRB03KT P6SM SCT020 BKN250
     FM261700 14008KT P6SM SCT030=

USA.gov is the U.S. government's official web portal to all federal, state and local government web resources and services.